Time;durP1;ratioP1;P1;durP2;ratioP2;P2;SDS_P1;SDS_P2;PMS_P1;PMS_P2;Temp;Humidity;BMP_temperature;BMP_pressure;BME280_temperature;BME280_humidity;BME280_pressure;Samples;Min_cycle;Max_cycle;Signal;HPM_P1;HPM_P2
2022/04/16 00:00:58;;;;;;;3.70;2.87;;;;;;;16.52;41.48;98363.03;5110678;28;20434;-71
2022/04/16 00:03:23;;;;;;;2.80;2.60;;;;;;;16.31;41.85;98369.59;5112983;27;20462;-71
2022/04/16 00:05:51;;;;;;;3.20;2.70;;;;;;;16.23;42.12;98378.31;5093134;28;20195;-71
2022/04/16 00:08:21;;;;;;;4.40;3.03;;;;;;;16.21;42.24;98376.84;5111045;28;20195;-71
2022/04/16 00:10:46;;;;;;;3.30;2.40;;;;;;;16.20;42.05;98383.13;5110881;28;20423;-71
2022/04/16 00:13:12;;;;;;;2.90;2.60;;;;;;;16.24;41.49;98381.81;5110870;28;20464;-72
2022/04/16 00:15:38;;;;;;;2.80;2.47;;;;;;;16.26;41.67;98383.31;5092699;28;20195;-71
2022/04/16 00:18:04;;;;;;;4.33;2.60;;;;;;;16.20;41.94;98377.81;5111209;28;20339;-71
2022/04/16 00:20:33;;;;;;;3.57;2.77;;;;;;;16.18;41.72;98379.78;5109519;28;20474;-70
2022/04/16 00:22:58;;;;;;;2.30;2.10;;;;;;;16.20;41.84;98378.63;5110716;28;20454;-71
2022/04/16 00:25:24;;;;;;;2.60;2.40;;;;;;;16.17;41.67;98378.97;5111848;28;20418;-71
2022/04/16 00:27:49;;;;;;;2.67;2.30;;;;;;;16.21;41.71;98369.72;5113898;28;20428;-71
2022/04/16 00:30:17;;;;;;;2.40;2.20;;;;;;;16.17;41.68;98368.41;5110751;28;20181;-72
2022/04/16 00:32:44;;;;;;;3.50;2.20;;;;;;;16.15;41.88;98364.25;5112106;28;20200;-70
2022/04/16 00:35:10;;;;;;;2.70;2.30;;;;;;;16.14;41.73;98366.06;5111504;28;20451;-71
2022/04/16 00:37:35;;;;;;;3.13;2.43;;;;;;;16.13;41.28;98378.44;5111321;28;20522;-71
2022/04/16 00:40:01;;;;;;;4.30;2.57;;;;;;;15.95;41.91;98370.59;5110680;28;20279;-71
2022/04/16 00:42:40;;;;;;;2.30;2.10;;;;;;;15.91;42.25;98374.56;5110332;28;20208;-70
2022/04/16 00:45:06;;;;;;;2.57;2.37;;;;;;;15.76;42.39;98361.06;5092642;28;20211;-71
2022/04/16 00:47:32;;;;;;;2.83;2.40;;;;;;;15.79;42.29;98363.41;5110576;28;20434;-71
2022/04/16 00:49:59;;;;;;;2.13;1.93;;;;;;;15.79;41.94;98373.97;5110339;28;20423;-71
2022/04/16 00:52:25;;;;;;;3.17;2.40;;;;;;;15.71;42.13;98376.59;5110124;28;20669;-71
2022/04/16 00:54:51;;;;;;;2.33;2.23;;;;;;;15.55;42.75;98374.69;5110747;28;20433;-71
2022/04/16 00:57:17;;;;;;;3.10;2.33;;;;;;;15.46;42.83;98370.31;5093417;28;20521;-71
2022/04/16 00:59:43;;;;;;;2.80;2.30;;;;;;;15.44;42.60;98372.25;5096410;28;20548;-69
2022/04/16 01:02:09;;;;;;;5.43;2.63;;;;;;;15.33;42.45;98370.72;5114137;27;20466;-70
2022/04/16 01:04:35;;;;;;;3.97;2.20;;;;;;;15.40;42.71;98368.28;5114582;28;20241;-68
2022/04/16 01:07:00;;;;;;;3.10;2.50;;;;;;;15.39;42.36;98370.09;5114549;28;20430;-68
2022/04/16 01:09:26;;;;;;;6.60;2.70;;;;;;;15.24;42.15;98367.19;5113861;28;20236;-68
2022/04/16 01:11:51;;;;;;;2.57;2.33;;;;;;;15.26;42.35;98369.66;5096159;28;20204;-69
2022/04/16 01:14:19;;;;;;;3.20;2.80;;;;;;;15.14;42.63;98366.47;5113598;28;20185;-72
2022/04/16 01:16:45;;;;;;;3.27;2.33;;;;;;;15.15;42.60;98370.75;5114145;28;20213;-70
2022/04/16 01:19:11;;;;;;;2.80;2.53;;;;;;;15.08;42.62;98370.53;5114094;28;20914;-71
2022/04/16 01:21:36;;;;;;;2.60;2.40;;;;;;;15.14;42.48;98367.28;5114037;28;20612;-71
2022/04/16 01:24:05;;;;;;;3.13;2.30;;;;;;;15.15;42.52;98371.56;5113986;28;20184;-71
2022/04/16 01:26:31;;;;;;;2.93;2.73;;;;;;;15.02;42.51;98369.34;5113823;28;20872;-70
2022/04/16 01:28:57;;;;;;;2.50;2.30;;;;;;;15.20;42.24;98368.47;5113306;28;20427;-70
2022/04/16 01:31:22;;;;;;;2.40;2.23;;;;;;;15.00;42.34;98367.81;5098478;27;20181;-71
2022/04/16 01:33:48;;;;;;;2.23;2.13;;;;;;;15.03;42.20;98364.88;5113449;28;20165;-71
2022/04/16 01:36:13;;;;;;;2.30;2.10;;;;;;;15.22;42.04;98360.41;5113496;28;20212;-68
2022/04/16 01:38:39;;;;;;;2.53;2.33;;;;;;;15.22;41.99;98360.41;5113107;28;20637;-71
2022/04/16 01:41:04;;;;;;;2.90;2.00;;;;;;;15.27;42.26;98363.41;5113931;28;20181;-70
2022/04/16 01:43:30;;;;;;;2.37;2.17;;;;;;;15.18;42.13;98363.34;5114133;28;20205;-71
2022/04/16 01:45:56;;;;;;;2.27;2.17;;;;;;;15.20;42.28;98361.41;5086974;28;20564;-69
2022/04/16 01:48:22;;;;;;;2.37;2.17;;;;;;;15.28;42.06;98365.91;5094217;28;20188;-71
2022/04/16 01:50:48;;;;;;;3.03;2.10;;;;;;;15.29;42.04;98364.09;5113563;28;20426;-70
2022/04/16 01:53:14;;;;;;;2.50;2.30;;;;;;;15.26;42.14;98359.09;5096820;27;20438;-71
2022/04/16 01:55:40;;;;;;;2.40;2.20;;;;;;;15.19;42.30;98365.00;5095360;28;20422;-70
2022/04/16 01:58:06;;;;;;;2.50;2.30;;;;;;;15.05;43.02;98373.47;5113666;28;20479;-72
2022/04/16 02:00:33;;;;;;;2.60;2.13;;;;;;;14.99;43.21;98379.38;5112888;28;20187;-71
2022/04/16 02:02:59;;;;;;;3.10;2.50;;;;;;;15.09;42.83;98382.75;5115745;27;20486;-70
2022/04/16 02:05:25;;;;;;;2.37;2.20;;;;;;;15.06;42.62;98393.63;5112661;28;20465;-71
2022/04/16 02:07:51;;;;;;;2.73;2.30;;;;;;;14.98;43.02;98390.91;5112544;28;20442;-71
2022/04/16 02:10:17;;;;;;;2.30;2.10;;;;;;;15.00;43.05;98391.56;5111677;28;20188;-71
2022/04/16 02:12:43;;;;;;;2.83;2.20;;;;;;;15.03;42.68;98394.75;5113055;28;20201;-71
2022/04/16 02:15:09;;;;;;;2.67;2.47;;;;;;;15.00;42.79;98391.56;5113260;28;20427;-70
2022/04/16 02:17:36;;;;;;;3.23;2.40;;;;;;;15.07;42.85;98387.34;5113040;28;20449;-70
2022/04/16 02:20:03;;;;;;;5.27;2.30;;;;;;;15.09;42.46;98388.03;5112725;27;20422;-71
2022/04/16 02:22:45;;;;;;;3.03;2.50;;;;;;;15.03;43.08;98380.72;5101202;28;20524;-71
2022/04/16 02:25:11;;;;;;;2.93;2.73;;;;;;;15.00;42.77;98381.00;5112889;28;20447;-69
2022/04/16 02:27:37;;;;;;;2.97;2.40;;;;;;;14.90;43.07;98386.41;5111960;28;20423;-70
2022/04/16 02:30:04;;;;;;;3.33;2.53;;;;;;;14.79;43.75;98381.34;5112467;28;20426;-69
2022/04/16 02:32:31;;;;;;;2.57;2.37;;;;;;;14.84;43.53;98379.91;5113482;27;20197;-70
2022/04/16 02:34:56;;;;;;;2.93;2.50;;;;;;;14.84;43.33;98377.28;5112539;28;20962;-70
2022/04/16 02:37:22;;;;;;;2.63;2.43;;;;;;;14.79;43.55;98376.88;5111673;28;20438;-68
2022/04/16 02:39:48;;;;;;;8.03;4.17;;;;;;;14.67;43.64;98380.69;5112457;28;20246;-69
2022/04/16 02:42:13;;;;;;;9.03;6.30;;;;;;;14.59;43.89;98379.63;5112337;28;20204;-68
2022/04/16 02:47:23;;;;;;;5.03;4.00;;;;;;;14.40;44.87;98380.59;5112278;28;20264;-71
2022/04/16 02:49:48;;;;;;;3.27;2.97;;;;;;;14.33;44.67;98384.78;5111725;28;20859;-70
2022/04/16 02:52:14;;;;;;;6.70;3.83;;;;;;;14.36;44.77;98391.59;5112116;28;20205;-71
2022/04/16 02:54:39;;;;;;;3.60;3.30;;;;;;;14.36;45.06;98394.22;5111995;28;20254;-71
2022/04/16 02:57:05;;;;;;;3.10;2.80;;;;;;;14.34;44.78;98396.19;5112451;28;20189;-70
2022/04/16 02:59:35;;;;;;;3.63;3.33;;;;;;;14.17;44.49;98395.97;5111678;28;20176;-70
2022/04/16 03:02:01;;;;;;;7.17;3.27;;;;;;;14.09;45.50;98399.34;5111376;27;20204;-71
2022/04/16 03:04:27;;;;;;;4.47;3.20;;;;;;;14.17;45.21;98401.25;5111661;28;20941;-69
2022/04/16 03:06:53;;;;;;;4.10;2.43;;;;;;;13.98;45.62;98391.63;5112293;28;20434;-71
2022/04/16 03:09:18;;;;;;;4.43;2.93;;;;;;;13.96;45.18;98386.50;5111135;28;20188;-71
2022/04/16 03:11:44;;;;;;;4.77;2.97;;;;;;;13.85;45.83;98389.31;5113996;28;20205;-70
2022/04/16 03:19:37;;;;;;;6.00;2.80;;;;;;;13.81;45.46;98406.38;5110516;28;20419;-72
2022/04/16 03:22:03;;;;;;;7.80;4.60;;;;;;;13.77;45.79;98410.25;5111864;28;20506;-71
2022/04/16 03:24:28;;;;;;;4.00;3.23;;;;;;;13.72;45.83;98415.16;5111371;28;20189;-70
2022/04/16 03:26:54;;;;;;;3.23;2.93;;;;;;;13.63;46.13;98408.94;5111555;28;20180;-72
2022/04/16 03:29:19;;;;;;;6.57;3.80;;;;;;;13.45;46.37;98409.66;5111059;28;20264;-71
2022/04/16 03:31:45;;;;;;;6.23;4.50;;;;;;;13.38;46.42;98400.63;5110891;28;20201;-71
2022/04/16 03:34:10;;;;;;;3.07;2.60;;;;;;;13.35;46.35;98396.50;5111561;28;20267;-70
2022/04/16 03:36:36;;;;;;;3.37;2.90;;;;;;;13.41;46.69;98395.13;5111238;28;20233;-69
2022/04/16 03:39:01;;;;;;;3.47;3.10;;;;;;;13.50;46.46;98390.78;5111134;28;20713;-69
2022/04/16 03:41:27;;;;;;;2.87;2.67;;;;;;;13.27;47.28;98387.63;5110601;28;20209;-70
2022/04/16 03:43:52;;;;;;;4.40;2.90;;;;;;;13.22;47.13;98390.69;5111291;28;20207;-70
2022/04/16 03:46:18;;;;;;;8.10;3.50;;;;;;;13.24;47.55;98386.09;5108417;28;20441;-69
2022/04/16 03:48:44;;;;;;;3.40;3.10;;;;;;;13.32;47.29;98390.66;5111250;28;20188;-69
2022/04/16 03:51:10;;;;;;;3.53;3.23;;;;;;;13.28;47.11;98394.56;5102352;27;20177;-69
2022/04/16 03:53:35;;;;;;;4.17;3.03;;;;;;;13.28;47.64;98397.19;5092412;28;20519;-70
2022/04/16 03:59:59;;;;;;;7.43;3.87;;;;;;;13.36;47.62;98392.84;5090621;28;20177;-69
2022/04/16 04:01:42;;;;;;;5.60;4.30;;;;;;;13.39;46.93;98401.44;5090981;28;20807;-70
2022/04/16 04:04:10;;;;;;;7.87;6.10;;;;;;;13.36;47.48;98398.13;5091541;28;20407;-68
2022/04/16 04:06:35;;;;;;;5.00;4.50;;;;;;;13.39;47.43;98407.56;5111119;28;20242;-70
2022/04/16 04:09:00;;;;;;;4.03;3.63;;;;;;;13.43;47.37;98398.41;5111734;28;20418;-69
2022/04/16 04:11:26;;;;;;;4.73;3.50;;;;;;;13.37;47.51;98401.59;5111805;28;20165;-71
2022/04/16 04:13:51;;;;;;;3.87;3.10;;;;;;;13.47;47.36;98409.53;5093206;28;20317;-72
2022/04/16 04:16:19;;;;;;;3.10;2.90;;;;;;;13.50;47.13;98414.47;5110994;28;20249;-71
2022/04/16 04:18:44;;;;;;;7.47;6.20;;;;;;;13.41;47.65;98415.34;5111716;28;20172;-70
2022/04/16 04:21:10;;;;;;;11.07;8.00;;;;;;;13.54;47.47;98415.06;5119705;28;20422;-69
2022/04/16 04:23:35;;;;;;;12.13;8.17;;;;;;;13.54;47.65;98407.97;5113157;28;20205;-70
2022/04/16 04:26:01;;;;;;;10.90;7.07;;;;;;;13.54;47.43;98410.59;5113932;28;20208;-70
2022/04/16 04:28:26;;;;;;;9.77;7.60;;;;;;;13.47;47.57;98415.59;5109711;28;20181;-69
2022/04/16 04:30:52;;;;;;;7.13;4.97;;;;;;;13.60;47.37;98427.66;5110739;28;20192;-69
2022/04/16 04:33:17;;;;;;;6.27;4.70;;;;;;;13.60;47.13;98428.50;5113667;28;20196;-70
2022/04/16 04:35:43;;;;;;;8.30;5.37;;;;;;;13.51;47.98;98437.22;5106728;28;20207;-70
2022/04/16 04:38:08;;;;;;;6.77;5.63;;;;;;;13.56;47.72;98437.63;5114594;28;20181;-69
2022/04/16 04:40:34;;;;;;;10.20;6.20;;;;;;;13.60;47.91;98435.56;5114859;28;20177;-70
2022/04/16 04:42:59;;;;;;;6.20;4.40;;;;;;;13.47;47.86;98434.03;5114922;28;20293;-70
2022/04/16 04:45:25;;;;;;;4.80;3.80;;;;;;;13.50;47.42;98433.78;5114925;28;20188;-69
2022/04/16 04:47:50;;;;;;;7.73;4.00;;;;;;;13.51;47.39;98430.16;5115162;28;20267;-69
2022/04/16 04:50:16;;;;;;;4.00;3.60;;;;;;;13.49;47.12;98434.75;5113271;28;20229;-71
2022/04/16 04:52:41;;;;;;;5.50;4.13;;;;;;;13.44;47.48;98430.88;5114604;28;20299;-69
2022/04/16 04:55:09;;;;;;;4.37;3.43;;;;;;;13.44;47.47;98436.94;5114665;28;20225;-70
2022/04/16 04:57:35;;;;;;;5.53;4.40;;;;;;;13.45;48.03;98440.44;5113957;28;20183;-69
2022/04/16 05:00:00;;;;;;;5.87;4.73;;;;;;;13.47;47.71;98431.41;5095674;28;20430;-69
2022/04/16 05:02:26;;;;;;;5.20;4.40;;;;;;;13.54;47.53;98431.69;5114038;28;20681;-70
2022/04/16 05:04:51;;;;;;;6.93;5.20;;;;;;;13.55;47.40;98429.84;5114911;28;20267;-70
2022/04/16 05:07:17;;;;;;;6.43;4.87;;;;;;;13.47;48.11;98433.22;5113711;28;20824;-69
2022/04/16 05:09:42;;;;;;;8.53;4.23;;;;;;;13.61;48.06;98435.41;5114021;28;20259;-70
2022/04/16 05:12:08;;;;;;;6.23;4.00;;;;;;;13.41;48.58;98446.94;5114407;28;20280;-69
2022/04/16 05:14:33;;;;;;;6.30;4.37;;;;;;;13.49;48.17;98444.44;5114258;28;20242;-69
2022/04/16 05:16:59;;;;;;;8.10;6.27;;;;;;;13.60;48.43;98446.09;5113677;28;20181;-67
2022/04/16 05:19:24;;;;;;;10.00;5.40;;;;;;;13.63;48.29;98446.63;5113695;28;20196;-70
2022/04/16 05:21:50;;;;;;;4.43;3.70;;;;;;;13.49;48.60;98444.44;5113829;28;20201;-69
2022/04/16 05:24:15;;;;;;;4.60;4.20;;;;;;;13.44;48.73;98454.56;5113600;28;20710;-69
2022/04/16 05:26:41;;;;;;;4.37;3.50;;;;;;;13.53;48.73;98453.72;5105221;28;20222;-70
2022/04/16 05:29:07;;;;;;;4.90;3.60;;;;;;;13.64;48.59;98460.66;5095629;28;20176;-68
2022/04/16 05:31:33;;;;;;;3.53;3.20;;;;;;;13.59;48.41;98454.97;5113282;28;20677;-70
2022/04/16 05:36:44;;;;;;;5.80;4.00;;;;;;;13.60;48.61;98448.72;5113821;28;20469;-69
2022/04/16 05:39:09;;;;;;;4.73;3.80;;;;;;;13.66;48.52;98451.63;5112484;28;20426;-69
2022/04/16 05:41:35;;;;;;;3.00;2.80;;;;;;;13.70;48.12;98456.63;5113009;28;20442;-69
2022/04/16 05:44:01;;;;;;;9.83;3.97;;;;;;;13.78;47.83;98456.72;5112858;28;20173;-70
2022/04/16 05:46:27;;;;;;;3.70;3.30;;;;;;;13.80;47.55;98466.13;5113432;28;20427;-70
2022/04/16 05:48:52;;;;;;;3.40;2.90;;;;;;;13.89;47.84;98467.09;5113421;28;20443;-70
2022/04/16 05:51:19;;;;;;;4.30;2.83;;;;;;;13.93;47.33;98465.84;5111094;27;20185;-69
2022/04/16 05:53:45;;;;;;;3.80;3.00;;;;;;;13.88;47.62;98475.16;5108790;28;20643;-70
2022/04/16 05:56:11;;;;;;;3.03;2.80;;;;;;;13.98;47.42;98478.59;5082504;28;20415;-70
2022/04/16 05:58:37;;;;;;;3.97;3.27;;;;;;;14.10;47.14;98474.00;5116325;27;20433;-70
2022/04/16 06:01:03;;;;;;;5.97;3.47;;;;;;;13.95;47.57;98470.97;5113167;28;20427;-69
2022/04/16 06:03:29;;;;;;;4.10;3.50;;;;;;;14.02;47.45;98465.94;5114171;28;20205;-70
2022/04/16 06:05:55;;;;;;;3.50;3.23;;;;;;;14.13;46.79;98468.41;5114048;28;20426;-71
2022/04/16 06:08:20;;;;;;;3.90;3.50;;;;;;;14.13;46.56;98471.03;5113346;28;20441;-70
2022/04/16 06:10:46;;;;;;;4.10;3.70;;;;;;;14.21;46.17;98475.59;5113321;28;20419;-71
2022/04/16 06:13:12;;;;;;;5.63;3.70;;;;;;;14.20;46.13;98480.06;5113668;28;20205;-72
2022/04/16 06:15:41;;;;;;;4.73;4.13;;;;;;;14.25;46.59;98480.44;5114018;28;20192;-70
2022/04/16 06:18:08;;;;;;;3.47;3.17;;;;;;;14.26;46.07;98490.00;5115004;28;20264;-72
2022/04/16 06:20:34;;;;;;;4.10;3.70;;;;;;;14.39;45.85;98489.69;5095902;28;20423;-69
2022/04/16 06:23:00;;;;;;;4.40;3.07;;;;;;;14.47;45.77;98486.34;5103545;27;20548;-69
2022/04/16 06:25:25;;;;;;;4.53;4.10;;;;;;;14.44;45.51;98495.34;5118998;27;20505;-73
2022/04/16 06:27:51;;;;;;;3.93;3.53;;;;;;;14.46;45.55;98500.50;5124007;28;20193;-71
2022/04/16 06:30:16;;;;;;;3.53;3.23;;;;;;;14.46;45.92;98502.28;5115542;28;20196;-69
2022/04/16 06:32:42;;;;;;;3.87;3.50;;;;;;;14.55;45.62;98502.25;5113911;28;20211;-69
2022/04/16 06:35:08;;;;;;;4.30;3.90;;;;;;;14.62;45.69;98504.31;5113291;28;20650;-70
2022/04/16 06:37:34;;;;;;;3.80;3.50;;;;;;;14.56;45.69;98500.44;5086413;28;20629;-67
2022/04/16 06:40:00;;;;;;;4.10;3.80;;;;;;;14.56;45.78;98498.66;5112973;28;20824;-68
2022/04/16 06:42:26;;;;;;;4.80;3.97;;;;;;;14.58;45.46;98493.22;5112471;28;20462;-69
2022/04/16 06:44:52;;;;;;;4.40;3.57;;;;;;;14.63;45.26;98501.53;5112521;28;20203;-69
2022/04/16 06:47:18;;;;;;;3.40;3.10;;;;;;;14.57;45.16;98500.31;5112589;28;20423;-70
2022/04/16 06:49:43;;;;;;;4.40;4.00;;;;;;;14.61;45.04;98497.38;5094032;28;20189;-69
2022/04/16 06:52:09;;;;;;;4.40;4.00;;;;;;;14.57;44.93;98492.41;5093883;28;20235;-71
2022/04/16 06:54:35;;;;;;;4.40;4.00;;;;;;;14.47;45.01;98503.97;5111376;28;20185;-69
2022/04/16 06:57:00;;;;;;;5.60;4.40;;;;;;;14.48;44.90;98502.97;5111935;27;20438;-69
2022/04/16 06:59:26;;;;;;;5.00;4.10;;;;;;;14.50;45.11;98504.50;5112236;28;20264;-69
2022/04/16 07:01:51;;;;;;;4.07;3.73;;;;;;;14.57;44.94;98505.59;5112351;28;20217;-70
2022/04/16 07:04:17;;;;;;;4.20;3.80;;;;;;;14.55;45.09;98504.06;5111697;28;20188;-71
2022/04/16 07:06:42;;;;;;;3.67;3.37;;;;;;;14.48;44.99;98511.75;5112351;28;20238;-69
2022/04/16 07:09:10;;;;;;;5.57;3.77;;;;;;;14.50;44.92;98503.66;5093684;28;20177;-71
2022/04/16 07:11:36;;;;;;;4.50;4.07;;;;;;;14.48;44.83;98509.09;5093454;28;20209;-71
2022/04/16 07:14:01;;;;;;;4.60;4.20;;;;;;;14.48;44.69;98509.09;5093950;28;20471;-68
2022/04/16 07:16:27;;;;;;;5.03;4.53;;;;;;;14.47;44.68;98507.44;5112110;28;20189;-69
2022/04/16 07:18:52;;;;;;;4.13;3.73;;;;;;;14.44;44.82;98510.38;5112682;28;20272;-70
2022/04/16 07:21:17;;;;;;;4.83;4.33;;;;;;;14.43;44.54;98506.88;5111877;28;20653;-68
2022/04/16 07:23:43;;;;;;;8.20;4.30;;;;;;;14.52;44.74;98515.72;5111537;28;20200;-69
2022/04/16 07:26:11;;;;;;;5.77;4.50;;;;;;;14.49;44.73;98516.00;5111796;28;20201;-68
2022/04/16 07:28:37;;;;;;;5.07;4.57;;;;;;;14.46;44.44;98516.31;5110564;28;20188;-68
2022/04/16 07:31:03;;;;;;;5.70;4.77;;;;;;;14.39;44.78;98507.31;5111970;28;20426;-68
2022/04/16 07:33:32;;;;;;;5.73;4.20;;;;;;;14.32;44.64;98506.25;5093319;28;20326;-69
2022/04/16 07:35:57;;;;;;;5.43;4.37;;;;;;;14.28;44.96;98516.25;5112088;28;20272;-69
2022/04/16 07:38:23;;;;;;;5.00;4.50;;;;;;;14.26;45.31;98520.84;5111353;28;20520;-69
2022/04/16 07:40:49;;;;;;;5.40;4.90;;;;;;;14.20;45.16;98524.88;5111573;28;20196;-68
2022/04/16 07:43:18;;;;;;;7.37;5.17;;;;;;;14.19;45.15;98530.28;5111289;28;20213;-69
2022/04/16 07:45:43;;;;;;;6.27;4.53;;;;;;;14.21;45.32;98533.59;5076899;28;20226;-69
2022/04/16 07:48:10;;;;;;;6.00;5.10;;;;;;;14.22;45.38;98532.63;5110460;28;20431;-69
2022/04/16 07:50:35;;;;;;;8.20;5.30;;;;;;;14.27;45.38;98528.59;5110563;28;20177;-69
2022/04/16 07:53:01;;;;;;;5.50;4.90;;;;;;;14.31;45.15;98523.03;5080994;27;20506;-69
2022/04/16 07:55:31;;;;;;;5.40;4.90;;;;;;;14.32;45.49;98529.97;5129904;27;20260;-71
2022/04/16 07:58:00;;;;;;;8.87;6.40;;;;;;;14.25;45.50;98540.25;5104885;27;20188;-68
2022/04/16 08:00:26;;;;;;;6.97;6.00;;;;;;;14.27;45.21;98533.88;5124128;27;20865;-69
2022/04/16 08:02:51;;;;;;;6.20;5.40;;;;;;;14.22;45.80;98530.84;5119077;27;20486;-70
2022/04/16 08:05:17;;;;;;;5.73;5.07;;;;;;;14.26;46.13;98544.56;5110753;28;20570;-71
2022/04/16 08:07:42;;;;;;;6.67;5.30;;;;;;;14.34;45.84;98546.50;5110970;28;20204;-69
2022/04/16 08:10:08;;;;;;;7.57;5.50;;;;;;;14.34;45.85;98549.94;5110991;28;20196;-69
2022/04/16 08:12:34;;;;;;;6.73;5.70;;;;;;;14.34;45.87;98552.59;5110912;28;20204;-70
2022/04/16 08:14:59;;;;;;;6.90;6.20;;;;;;;14.35;45.93;98551.63;5076447;28;20559;-70
2022/04/16 08:17:25;;;;;;;7.20;5.83;;;;;;;14.44;46.30;98547.28;5092971;28;20947;-70
2022/04/16 08:19:51;;;;;;;7.10;5.70;;;;;;;14.49;46.19;98555.59;5092936;28;20226;-69
2022/04/16 08:22:21;;;;;;;6.73;6.03;;;;;;;14.51;46.09;98556.28;5075421;28;20201;-69
2022/04/16 08:27:32;;;;;;;6.17;5.13;;;;;;;14.80;45.67;98552.72;5115857;28;20486;-69
2022/04/16 08:29:57;;;;;;;13.80;6.63;;;;;;;14.87;45.83;98553.78;5117416;28;20423;-69
2022/04/16 08:32:23;;;;;;;8.50;7.13;;;;;;;14.75;45.58;98557.59;5094792;28;20218;-70
2022/04/16 08:34:48;;;;;;;7.20;6.50;;;;;;;14.77;45.64;98560.94;5112784;28;20212;-71
2022/04/16 08:37:14;;;;;;;7.80;6.60;;;;;;;14.82;45.51;98563.97;5112211;28;20192;-70
2022/04/16 08:39:39;;;;;;;7.37;6.50;;;;;;;14.63;45.80;98572.75;5092503;28;20177;-71
2022/04/16 08:42:05;;;;;;;7.70;6.90;;;;;;;14.80;45.42;98570.38;5112508;28;20632;-68
2022/04/16 08:44:31;;;;;;;11.03;6.90;;;;;;;14.88;45.56;98565.19;5060499;28;20256;-68
2022/04/16 08:46:57;;;;;;;7.90;6.63;;;;;;;14.85;45.50;98568.13;5094068;28;20169;-69
2022/04/16 08:49:25;;;;;;;7.67;6.73;;;;;;;14.96;45.43;98559.19;5065197;28;20515;-70
2022/04/16 08:51:50;;;;;;;8.07;7.07;;;;;;;14.99;45.52;98558.91;5062523;28;20225;-71
2022/04/16 08:54:16;;;;;;;7.87;6.23;;;;;;;15.10;45.41;98565.75;5060017;28;20518;-70
2022/04/16 08:56:42;;;;;;;8.27;7.03;;;;;;;15.15;45.00;98569.63;5111905;28;20189;-69
2022/04/16 08:59:07;;;;;;;7.27;6.00;;;;;;;15.30;44.81;98562.03;5097973;28;20188;-70
2022/04/16 09:01:34;;;;;;;8.90;6.63;;;;;;;15.59;44.54;98565.44;5081149;28;20205;-71
2022/04/16 09:04:00;;;;;;;8.17;6.37;;;;;;;15.35;44.34;98558.94;5096827;28;20188;-70
2022/04/16 09:06:27;;;;;;;6.87;5.77;;;;;;;15.55;44.02;98558.78;5121417;28;20807;-71
2022/04/16 09:08:54;;;;;;;8.00;6.43;;;;;;;15.61;43.79;98561.66;5111677;28;20427;-70
2022/04/16 09:11:26;;;;;;;7.10;6.13;;;;;;;15.76;43.43;98561.94;5118600;28;20505;-67
2022/04/16 09:13:53;;;;;;;7.90;6.57;;;;;;;15.66;42.96;98566.47;5124230;28;20415;-72
2022/04/16 09:16:19;;;;;;;7.07;6.10;;;;;;;15.57;43.41;98567.41;5114993;28;20514;-70
2022/04/16 09:18:54;;;;;;;8.90;6.50;;;;;;;15.52;43.64;98562.56;5099079;28;20484;-70
2022/04/16 09:21:24;;;;;;;7.03;6.23;;;;;;;15.54;43.49;98576.47;5121267;28;20461;-71
2022/04/16 09:23:52;;;;;;;9.70;6.80;;;;;;;15.50;43.60;98572.44;5084609;28;20458;-70
2022/04/16 09:26:34;;;;;;;8.40;6.53;;;;;;;15.46;44.04;98579.00;5100507;28;20915;-70
2022/04/16 09:29:07;;;;;;;9.47;7.40;;;;;;;15.27;44.51;98574.69;5121943;27;20430;-69
2022/04/16 09:31:34;;;;;;;8.57;6.90;;;;;;;15.16;44.81;98573.09;5119334;28;20496;-71
2022/04/16 09:34:00;;;;;;;12.60;7.87;;;;;;;15.15;45.20;98572.25;5121416;28;20429;-70
2022/04/16 09:36:27;;;;;;;8.40;7.40;;;;;;;15.13;44.95;98574.22;5117326;28;20809;-69
2022/04/16 09:39:00;;;;;;;11.70;8.50;;;;;;;15.03;45.54;98576.06;5117127;28;20189;-71
2022/04/16 09:41:31;;;;;;;9.10;7.97;;;;;;;15.07;45.45;98574.81;5095831;28;20461;-70
2022/04/16 09:43:56;;;;;;;14.60;8.10;;;;;;;15.07;45.42;98579.25;5114702;28;20466;-71
2022/04/16 09:46:23;;;;;;;13.60;7.93;;;;;;;14.90;45.66;98582.53;5113833;28;20480;-70
2022/04/16 09:48:50;;;;;;;14.53;9.13;;;;;;;14.93;45.72;98570.03;5095481;28;20728;-70
2022/04/16 09:51:17;;;;;;;15.90;8.77;;;;;;;15.01;45.54;98581.53;5095948;28;20441;-73
2022/04/16 09:53:43;;;;;;;9.30;8.17;;;;;;;14.96;44.94;98586.41;5096029;28;20430;-70
2022/04/16 09:56:13;;;;;;;8.73;7.80;;;;;;;14.80;45.21;98587.03;5113624;28;20938;-71
2022/04/16 09:58:40;;;;;;;14.57;8.07;;;;;;;14.78;45.25;98586.34;5100322;28;20434;-70
2022/04/16 10:01:09;;;;;;;10.90;7.60;;;;;;;14.95;45.41;98592.66;5095958;28;20422;-71
2022/04/16 10:03:35;;;;;;;10.20;8.13;;;;;;;14.89;45.81;98593.25;5113332;28;20462;-70
2022/04/16 10:06:01;;;;;;;10.50;8.40;;;;;;;14.95;45.78;98595.28;5113820;28;20885;-70
2022/04/16 10:08:27;;;;;;;8.67;7.77;;;;;;;14.98;45.60;98595.00;5094863;28;20234;-72
2022/04/16 10:10:55;;;;;;;8.67;7.50;;;;;;;14.92;45.60;98595.59;5094956;28;20919;-70
2022/04/16 10:13:22;;;;;;;11.10;8.07;;;;;;;14.91;45.91;98599.22;5113426;28;20447;-70
2022/04/16 10:16:06;;;;;;;10.53;8.23;;;;;;;15.02;45.51;98599.03;5113343;28;20430;-71
2022/04/16 10:18:35;;;;;;;10.57;7.83;;;;;;;15.05;45.31;98604.03;5113315;28;20411;-70
2022/04/16 10:21:01;;;;;;;9.30;7.60;;;;;;;15.16;44.98;98600.31;5113147;28;20426;-70
2022/04/16 10:23:37;;;;;;;8.00;6.63;;;;;;;15.35;44.82;98595.91;5113206;28;21112;-70
2022/04/16 10:26:12;;;;;;;11.40;7.37;;;;;;;15.53;43.80;98609.16;5113350;28;20510;-70
2022/04/16 10:28:39;;;;;;;7.80;6.50;;;;;;;15.71;42.82;98610.94;5111786;28;20423;-71
2022/04/16 10:31:05;;;;;;;10.30;7.60;;;;;;;15.76;42.61;98606.88;5094181;27;20526;-71
2022/04/16 10:33:31;;;;;;;7.97;6.70;;;;;;;15.91;41.40;98603.72;5120300;27;20434;-69
2022/04/16 10:36:09;;;;;;;8.50;6.77;;;;;;;15.94;41.55;98606.06;5113858;27;20493;-70
2022/04/16 10:38:40;;;;;;;6.60;5.93;;;;;;;15.83;41.59;98601.81;5113419;28;20427;-71
2022/04/16 10:41:19;;;;;;;9.40;7.57;;;;;;;15.84;41.55;98600.00;5113816;28;20430;-71
2022/04/16 10:43:59;;;;;;;9.50;7.23;;;;;;;15.68;41.91;98611.28;5113821;28;20504;-72
2022/04/16 10:46:39;;;;;;;9.53;7.37;;;;;;;15.69;41.92;98608.47;5110352;27;20430;-72
2022/04/16 10:49:08;;;;;;;9.60;7.27;;;;;;;15.66;41.95;98608.75;5111312;28;20510;-72
2022/04/16 10:51:34;;;;;;;9.97;7.63;;;;;;;15.67;41.80;98615.72;5094449;28;20953;-71
2022/04/16 10:54:07;;;;;;;8.53;7.20;;;;;;;15.60;41.99;98609.38;5112266;28;20423;-70
2022/04/16 10:56:33;;;;;;;8.47;7.33;;;;;;;15.63;41.83;98603.78;5116299;28;20411;-71
2022/04/16 10:59:01;;;;;;;10.07;6.83;;;;;;;15.73;42.81;98609.00;5096157;28;20431;-72
2022/04/16 11:01:29;;;;;;;9.60;7.43;;;;;;;15.85;41.50;98602.53;5110548;28;20595;-71
2022/04/16 11:03:55;;;;;;;9.73;7.40;;;;;;;15.77;41.11;98605.88;5113020;28;20541;-70
2022/04/16 11:06:35;;;;;;;9.60;7.80;;;;;;;15.77;40.90;98603.25;5111457;28;20427;-71
2022/04/16 11:09:01;;;;;;;9.13;7.20;;;;;;;15.74;40.67;98595.66;5112285;28;20422;-70
2022/04/16 11:11:27;;;;;;;7.07;6.20;;;;;;;15.84;40.71;98586.81;5094572;28;20489;-70
2022/04/16 11:13:53;;;;;;;8.60;6.70;;;;;;;15.78;40.61;98589.06;5112553;28;20431;-71
2022/04/16 11:16:22;;;;;;;9.03;6.63;;;;;;;15.77;40.49;98584.75;5112480;28;20188;-72
2022/04/16 11:18:48;;;;;;;8.63;6.80;;;;;;;15.59;40.56;98591.88;5112107;28;20906;-71
2022/04/16 11:21:21;;;;;;;7.33;6.37;;;;;;;15.72;40.42;98579.09;5112046;28;20501;-71
2022/04/16 11:23:48;;;;;;;8.50;7.10;;;;;;;15.79;40.69;98582.78;5112051;28;20461;-70
2022/04/16 11:34:29;;;;;;;6.80;6.10;;;;;;;16.04;39.22;98585.66;5093667;28;20557;-70
2022/04/16 11:36:54;;;;;;;7.10;5.83;;;;;;;16.09;39.05;98588.69;5093760;28;20529;-70
2022/04/16 11:39:25;;;;;;;7.53;5.87;;;;;;;16.16;38.44;98583.59;5111607;28;20220;-68
2022/04/16 11:41:56;;;;;;;9.57;6.17;;;;;;;16.05;38.00;98587.31;5111477;28;20208;-69
2022/04/16 11:44:50;;;;;;;7.80;5.87;;;;;;;16.33;38.68;98589.00;5093775;28;20416;-70
2022/04/16 11:47:19;;;;;;;7.07;5.17;;;;;;;16.47;38.35;98585.78;5112289;28;20534;-73
2022/04/16 11:49:46;;;;;;;7.10;5.33;;;;;;;16.56;38.32;98586.66;5093708;28;20510;-70
2022/04/16 11:52:12;;;;;;;6.50;5.60;;;;;;;16.42;37.72;98590.72;5094708;28;20469;-71
2022/04/16 11:54:38;;;;;;;7.10;6.03;;;;;;;16.59;37.25;98586.34;5092775;28;20427;-72